Time;durP1;ratioP1;P1;durP2;ratioP2;P2;SDS_P1;SDS_P2;PMS_P1;PMS_P2;Temp;Humidity;BMP_temperature;BMP_pressure;BME280_temperature;BME280_humidity;BME280_pressure;Samples;Min_cycle;Max_cycle;Signal;HPM_P1;HPM_P2
2022/12/14 00:00:46;;;;;;;35.90;17.05;;;;;;;-5.87;100.00;100670.78;5092978;28;20456;-75
2022/12/14 00:03:12;;;;;;;34.72;17.05;;;;;;;-5.87;100.00;100670.78;5092797;28;20029;-74
2022/12/14 00:05:37;;;;;;;33.00;15.73;;;;;;;-5.89;100.00;100665.63;5092823;28;20021;-74
2022/12/14 00:08:03;;;;;;;36.00;16.40;;;;;;;-5.88;100.00;100663.88;5093220;28;20024;-75
2022/12/14 00:10:30;;;;;;;34.75;16.27;;;;;;;-5.89;100.00;100670.81;5093219;28;20119;-74
2022/12/14 00:12:56;;;;;;;38.45;16.35;;;;;;;-5.92;100.00;100657.94;5075216;28;20415;-74
2022/12/14 00:15:21;;;;;;;28.80;16.00;;;;;;;-5.91;100.00;100656.19;5092805;28;20531;-74
2022/12/14 00:17:47;;;;;;;31.17;14.80;;;;;;;-5.91;100.00;100651.00;5077954;28;20064;-75
2022/12/14 00:20:12;;;;;;;32.58;16.05;;;;;;;-5.93;100.00;100651.06;5096261;28;20063;-74
2022/12/14 00:22:37;;;;;;;31.17;15.80;;;;;;;-5.94;100.00;100640.72;5078407;28;20047;-74
2022/12/14 00:25:03;;;;;;;33.47;16.52;;;;;;;-5.95;100.00;100634.69;5096200;28;20514;-75
2022/12/14 00:27:28;;;;;;;29.77;15.45;;;;;;;-5.96;100.00;100624.38;5077810;28;20039;-75
2022/12/14 00:29:54;;;;;;;32.83;16.55;;;;;;;-5.98;100.00;100628.78;5096838;28;20028;-75
2022/12/14 00:32:20;;;;;;;33.10;16.42;;;;;;;-5.97;100.00;100627.88;5078893;28;20044;-75
2022/12/14 00:34:45;;;;;;;30.92;16.40;;;;;;;-5.98;100.00;100626.19;5096031;28;20031;-74
2022/12/14 00:37:10;;;;;;;34.67;15.05;;;;;;;-5.99;100.00;100617.56;5096189;28;20154;-74
2022/12/14 00:39:36;;;;;;;29.60;15.40;;;;;;;-6.00;100.00;100610.69;5096242;28;20173;-75
2022/12/14 00:42:01;;;;;;;35.17;16.42;;;;;;;-6.01;100.00;100611.56;5096271;28;20461;-75
2022/12/14 00:44:27;;;;;;;30.77;15.57;;;;;;;-6.04;100.00;100599.53;5095258;28;20047;-75
2022/12/14 00:46:52;;;;;;;28.90;15.38;;;;;;;-6.04;100.00;100598.69;5095645;28;20037;-75
2022/12/14 00:49:17;;;;;;;31.10;16.83;;;;;;;-6.06;100.00;100601.34;5095362;28;20028;-73
2022/12/14 00:51:42;;;;;;;31.55;15.57;;;;;;;-6.07;100.00;100601.38;5095993;28;20032;-76
2022/12/14 00:54:08;;;;;;;29.30;14.43;;;;;;;-6.09;100.00;100604.00;5095600;28;20477;-74
2022/12/14 00:56:33;;;;;;;30.67;14.10;;;;;;;-6.10;100.00;100597.13;5095190;28;20135;-74
2022/12/14 00:58:59;;;;;;;28.38;14.25;;;;;;;-6.13;100.00;100592.00;5095636;28;20159;-74
2022/12/14 01:01:24;;;;;;;33.70;15.73;;;;;;;-6.14;100.00;100586.88;5077441;28;20063;-76
2022/12/14 01:03:49;;;;;;;27.75;15.25;;;;;;;-6.14;100.00;100592.06;5077900;28;20059;-74
2022/12/14 01:06:18;;;;;;;30.45;14.88;;;;;;;-6.15;100.00;100586.03;5095525;28;20441;-75
2022/12/14 01:08:44;;;;;;;29.27;15.85;;;;;;;-6.16;100.00;100586.91;5095356;28;20059;-75
2022/12/14 01:11:10;;;;;;;29.67;15.38;;;;;;;-6.16;100.00;100586.06;5095840;28;20036;-73
2022/12/14 01:13:36;;;;;;;30.67;14.75;;;;;;;-6.17;100.00;100574.00;5095349;28;20517;-75
2022/12/14 01:16:04;;;;;;;32.47;15.05;;;;;;;-6.20;100.00;100580.94;5095416;28;20038;-74
2022/12/14 01:18:33;;;;;;;26.77;13.00;;;;;;;-6.21;100.00;100586.16;5095263;28;20028;-73
2022/12/14 01:21:10;;;;;;;29.48;13.75;;;;;;;-6.24;100.00;100573.28;5077748;28;20119;-73
2022/12/14 01:23:36;;;;;;;27.05;13.82;;;;;;;-6.25;100.00;100580.22;5096053;28;20031;-74
2022/12/14 01:26:02;;;;;;;31.48;15.50;;;;;;;-6.26;100.00;100580.25;5095654;28;20047;-74
2022/12/14 01:28:27;;;;;;;28.30;14.15;;;;;;;-6.27;100.00;100578.56;5094227;28;20031;-73
2022/12/14 01:30:53;;;;;;;28.15;14.95;;;;;;;-6.27;100.00;100582.00;5095448;28;20036;-76
2022/12/14 01:33:18;;;;;;;29.77;14.27;;;;;;;-6.28;100.00;100584.63;5094662;28;20039;-76
2022/12/14 01:35:43;;;;;;;33.53;15.38;;;;;;;-6.30;100.00;100578.63;5094673;28;20036;-73
2022/12/14 01:38:09;;;;;;;26.38;13.77;;;;;;;-6.33;100.00;100579.53;5095334;28;20036;-73
2022/12/14 01:40:34;;;;;;;25.50;13.60;;;;;;;-6.32;100.00;100588.19;5076789;28;20036;-76
2022/12/14 01:42:59;;;;;;;28.70;15.60;;;;;;;-6.36;100.00;100583.97;5095057;28;20035;-75
2022/12/14 01:45:25;;;;;;;30.35;15.20;;;;;;;-6.39;100.00;100585.75;5095049;28;20036;-76
2022/12/14 01:47:58;;;;;;;27.27;13.80;;;;;;;-6.41;100.00;100586.66;5094912;28;20042;-75
2022/12/14 01:50:31;;;;;;;31.15;15.18;;;;;;;-6.45;100.00;100578.13;5094772;28;20024;-75
2022/12/14 01:53:05;;;;;;;29.77;14.02;;;;;;;-6.48;100.00;100582.53;5094760;28;20380;-74
2022/12/14 01:55:37;;;;;;;24.92;12.13;;;;;;;-6.53;100.00;100585.22;5094434;28;20020;-73
2022/12/14 01:58:19;;;;;;;26.55;13.65;;;;;;;-6.58;100.00;100580.16;5095470;28;20044;-75
2022/12/14 02:00:45;;;;;;;27.02;13.07;;;;;;;-6.61;100.00;100581.97;5076652;28;20388;-73
2022/12/14 02:03:19;;;;;;;25.40;12.30;;;;;;;-6.68;100.00;100577.84;5094317;28;20031;-74
2022/12/14 02:06:03;;;;;;;27.38;13.43;;;;;;;-6.75;100.00;100574.53;5094673;28;20136;-73
2022/12/14 02:08:29;;;;;;;25.05;13.40;;;;;;;-6.81;100.00;100570.31;5094631;28;20036;-73
2022/12/14 02:10:56;;;;;;;23.77;12.10;;;;;;;-6.83;100.00;100573.88;5076590;28;20115;-74
2022/12/14 02:13:26;;;;;;;27.50;12.93;;;;;;;-6.87;100.00;100573.06;5094293;28;20487;-74
2022/12/14 02:15:52;;;;;;;26.23;12.73;;;;;;;-6.92;100.00;100570.59;5094761;28;20031;-75
2022/12/14 02:18:21;;;;;;;22.33;11.80;;;;;;;-6.93;100.00;100565.44;5094266;28;20475;-77
2022/12/14 02:21:17;;;;;;;27.83;12.35;;;;;;;-6.97;100.00;100561.22;5094410;28;20027;-73
2022/12/14 02:24:21;;;;;;;26.73;12.85;;;;;;;-7.00;100.00;100563.88;5094485;28;20039;-74
2022/12/14 02:27:08;;;;;;;23.20;12.15;;;;;;;-7.05;100.00;100558.81;5004390;28;20132;-74
2022/12/14 02:29:58;;;;;;;22.67;11.77;;;;;;;-7.11;100.00;100553.78;5094144;28;20028;-74
2022/12/14 02:32:55;;;;;;;23.65;12.30;;;;;;;-7.17;100.00;100559.09;5094636;28;20023;-74
2022/12/14 02:35:45;;;;;;;23.73;12.40;;;;;;;-7.25;100.00;100551.50;5094179;28;20116;-76
2022/12/14 02:38:10;;;;;;;26.75;12.75;;;;;;;-7.33;100.00;100559.44;5093874;28;20423;-74
2022/12/14 02:40:53;;;;;;;21.48;10.95;;;;;;;-7.38;100.00;100550.91;5075753;28;20040;-73
2022/12/14 02:43:47;;;;;;;24.88;12.15;;;;;;;-7.44;100.00;100561.38;5093724;28;20089;-76
2022/12/14 02:46:28;;;;;;;25.20;11.07;;;;;;;-7.49;100.00;100553.72;5094036;28;20039;-74
2022/12/14 02:48:56;;;;;;;;;;;;;;;-7.51;100.00;100549.44;5094878;28;20051;-76
2022/12/14 02:51:33;;;;;;;22.13;11.38;;;;;;;-7.52;100.00;100547.78;5093676;28;19934;-75
2022/12/14 02:54:36;;;;;;;24.73;12.05;;;;;;;-7.55;100.00;100543.50;5093621;28;20107;-74
2022/12/14 02:57:43;;;;;;;26.83;12.93;;;;;;;-7.56;100.00;100551.28;5094182;28;20044;-74
2022/12/14 03:00:10;;;;;;;29.00;11.57;;;;;;;-7.58;100.00;100545.28;5080475;28;20108;-74
2022/12/14 03:02:39;;;;;;;29.30;13.30;;;;;;;-7.62;100.00;100549.69;5093134;28;20137;-74
2022/12/14 03:05:05;;;;;;;23.40;11.77;;;;;;;-7.64;100.00;100543.69;5093410;28;20058;-74
2022/12/14 03:07:53;;;;;;;23.05;12.38;;;;;;;-7.63;100.00;100540.22;5093392;28;20437;-74
2022/12/14 03:10:29;;;;;;;23.95;12.15;;;;;;;-7.60;100.00;100536.72;5093142;28;20028;-75
2022/12/14 03:13:20;;;;;;;27.30;12.85;;;;;;;-7.56;100.00;100534.03;5075969;28;20368;-74
2022/12/14 03:15:51;;;;;;;25.73;12.13;;;;;;;-7.54;100.00;100534.84;5093236;28;20059;-73
2022/12/14 03:18:17;;;;;;;;;;;;;;;-7.54;100.00;100519.34;5094044;28;20023;-74
2022/12/14 03:20:48;;;;;;;21.90;11.32;;;;;;;-7.55;100.00;100517.66;5093021;28;19912;-74
2022/12/14 03:23:21;;;;;;;23.43;12.43;;;;;;;-7.54;100.00;100519.34;5093246;28;20028;-73
2022/12/14 03:26:04;;;;;;;24.27;12.73;;;;;;;-7.52;100.00;100520.19;5093815;28;20360;-74
2022/12/14 03:29:03;;;;;;;29.05;12.57;;;;;;;-7.56;100.00;100510.78;5093664;28;20028;-74
2022/12/14 03:31:33;;;;;;;27.60;12.80;;;;;;;-7.56;100.00;100508.19;5075099;28;20066;-74
2022/12/14 03:34:04;;;;;;;26.20;12.35;;;;;;;-7.61;100.00;100502.28;5093344;28;20028;-74
2022/12/14 03:36:39;;;;;;;24.40;12.23;;;;;;;-7.63;100.00;100501.44;5093112;28;20449;-74
2022/12/14 03:39:08;;;;;;;26.17;12.52;;;;;;;-7.66;100.00;100496.34;5093116;28;20349;-74
2022/12/14 03:42:02;;;;;;;21.73;12.07;;;;;;;-7.70;100.00;100492.13;5092804;28;20028;-74
2022/12/14 03:44:40;;;;;;;23.23;11.57;;;;;;;-7.72;100.00;100484.41;5082790;28;20036;-73
2022/12/14 03:47:28;;;;;;;25.35;11.68;;;;;;;-7.74;100.00;100483.59;5093005;28;20027;-74
2022/12/14 03:50:12;;;;;;;25.02;12.27;;;;;;;-7.75;100.00;100481.88;5041318;28;20122;-74
2022/12/14 03:53:03;;;;;;;20.98;11.00;;;;;;;-7.77;100.00;100482.81;5098571;28;20032;-75
2022/12/14 03:55:43;;;;;;;24.70;13.05;;;;;;;-7.78;100.00;100481.13;5099870;28;20032;-76
2022/12/14 03:58:23;;;;;;;27.10;11.98;;;;;;;-7.83;100.00;100479.47;5099049;28;20531;-74
2022/12/14 04:00:52;;;;;;;32.05;12.15;;;;;;;-7.84;100.00;100475.16;5099822;28;20035;-74
2022/12/14 04:03:31;;;;;;;27.73;13.65;;;;;;;-7.86;100.00;100478.69;5099903;28;20487;-74
2022/12/14 04:06:15;;;;;;;28.65;13.40;;;;;;;-7.86;100.00;100476.94;5099724;28;20483;-74
2022/12/14 04:08:47;;;;;;;25.42;12.13;;;;;;;-7.84;100.00;100482.06;5099883;28;20077;-74
2022/12/14 04:19:51;;;;;;;26.90;12.65;;;;;;;-7.88;100.00;100462.34;5099634;28;20392;-74
2022/12/14 04:22:22;;;;;;;28.17;13.95;;;;;;;-7.90;100.00;100464.13;5099298;28;20024;-74
2022/12/14 04:31:12;;;;;;;29.17;13.25;;;;;;;-8.00;100.00;100460.88;5099351;28;20047;-74
2022/12/14 04:33:47;;;;;;;26.40;11.85;;;;;;;-8.03;100.00;100450.59;5099190;28;20104;-75
2022/12/14 04:36:24;;;;;;;25.95;13.15;;;;;;;-8.04;100.00;100454.94;5099609;28;20106;-75
2022/12/14 04:38:55;;;;;;;28.10;13.60;;;;;;;-8.04;100.00;100447.19;5098880;28;20392;-74
2022/12/14 04:41:25;;;;;;;23.50;12.55;;;;;;;-8.03;100.00;100451.47;5099049;28;20032;-74
2022/12/14 04:43:54;;;;;;;24.75;12.20;;;;;;;-8.05;100.00;100447.22;5099355;28;20140;-74
2022/12/14 04:46:25;;;;;;;29.40;13.93;;;;;;;-8.05;100.00;100454.97;5099232;28;20426;-74
2022/12/14 04:49:01;;;;;;;21.92;13.10;;;;;;;-8.04;100.00;100452.34;5099114;28;20103;-74
2022/12/14 04:51:27;;;;;;;26.98;13.02;;;;;;;-8.05;100.00;100455.78;5099797;28;20036;-74
2022/12/14 04:53:59;;;;;;;30.70;14.88;;;;;;;-8.05;100.00;100458.38;5098590;28;20039;-75
2022/12/14 04:56:43;;;;;;;24.98;13.15;;;;;;;-8.11;100.00;100447.34;5098897;28;20075;-74
2022/12/14 04:59:09;;;;;;;27.33;12.50;;;;;;;-8.18;100.00;100444.00;5098498;28;20066;-75
2022/12/14 05:01:53;;;;;;;24.55;11.90;;;;;;;-8.24;100.00;100438.97;5099005;28;20036;-74
2022/12/14 05:04:40;;;;;;;30.48;13.40;;;;;;;-8.27;100.00;100444.19;5094408;28;20024;-74
2022/12/14 05:07:43;;;;;;;26.10;13.23;;;;;;;-8.35;100.00;100431.44;5096187;28;20082;-74
2022/12/14 05:10:17;;;;;;;29.30;13.25;;;;;;;-8.42;100.00;100432.44;5095906;28;20027;-74
2022/12/14 05:13:03;;;;;;;25.13;12.75;;;;;;;-8.46;100.00;100435.97;5095500;28;20460;-74
2022/12/14 05:15:39;;;;;;;26.67;13.27;;;;;;;-8.53;100.00;100433.50;5095555;28;20056;-74
2022/12/14 05:18:05;;;;;;;24.77;13.73;;;;;;;-8.52;100.00;100430.06;5095429;28;20050;-74
2022/12/14 05:20:31;;;;;;;29.83;13.70;;;;;;;-8.50;100.00;100432.63;5095207;28;20024;-74
2022/12/14 05:22:56;;;;;;;26.02;13.10;;;;;;;-8.54;100.00;100428.38;5095381;28;20453;-77
2022/12/14 05:25:22;;;;;;;25.25;12.05;;;;;;;-8.56;100.00;100432.72;5095753;28;20039;-74
2022/12/14 05:27:47;;;;;;;25.23;12.90;;;;;;;-8.59;100.00;100425.03;5095636;28;20032;-74
2022/12/14 05:30:12;;;;;;;25.27;13.55;;;;;;;-8.60;100.00;100431.06;5095578;28;20468;-75
2022/12/14 05:32:38;;;;;;;23.45;12.23;;;;;;;-8.65;100.00;100438.06;5095363;28;20482;-75
2022/12/14 05:35:05;;;;;;;26.08;12.82;;;;;;;-8.69;100.00;100432.97;5095450;28;20074;-76
2022/12/14 05:37:30;;;;;;;26.27;13.25;;;;;;;-8.72;100.00;100427.84;5095310;28;20460;-74
2022/12/14 05:39:56;;;;;;;27.45;12.07;;;;;;;-8.76;100.00;100430.50;5095237;28;20039;-75
2022/12/14 05:42:21;;;;;;;24.83;12.43;;;;;;;-8.79;100.00;100425.38;5077408;28;20464;-75
2022/12/14 05:44:46;;;;;;;22.35;11.05;;;;;;;-8.83;100.00;100418.59;5095280;28;20028;-75
2022/12/14 05:47:13;;;;;;;21.73;11.05;;;;;;;-8.89;100.00;100420.41;5094984;28;20082;-74
2022/12/14 05:49:38;;;;;;;25.10;11.90;;;;;;;-8.93;100.00;100413.56;5094928;28;20077;-73
2022/12/14 05:52:04;;;;;;;24.90;12.02;;;;;;;-8.95;100.00;100417.91;5094673;28;20523;-73
2022/12/14 05:54:29;;;;;;;21.33;11.45;;;;;;;-8.97;100.00;100414.53;5094795;28;20138;-72
2022/12/14 05:56:55;;;;;;;24.95;11.18;;;;;;;-9.01;100.00;100412.03;5094152;28;20527;-74
2022/12/14 05:59:20;;;;;;;22.02;10.35;;;;;;;-9.05;100.00;100414.63;5094827;28;20036;-74
2022/12/14 06:01:48;;;;;;;24.23;11.82;;;;;;;-9.09;100.00;100410.44;5094519;28;20032;-74
2022/12/14 06:04:14;;;;;;;23.75;12.15;;;;;;;-9.12;100.00;100412.19;5094643;28;20032;-74
2022/12/14 06:06:40;;;;;;;19.90;10.50;;;;;;;-9.16;100.00;100415.72;5094815;28;20479;-74
2022/12/14 06:09:10;;;;;;;25.30;11.68;;;;;;;-9.20;100.00;100414.06;5094333;28;20039;-74
2022/12/14 06:11:37;;;;;;;21.58;11.90;;;;;;;-9.24;100.00;100416.69;5094684;28;20024;-74
2022/12/14 06:14:04;;;;;;;26.83;11.90;;;;;;;-9.26;100.00;100415.00;5093918;28;20102;-74
2022/12/14 06:16:29;;;;;;;20.85;10.68;;;;;;;-9.31;100.00;100412.50;5093885;28;20039;-74
2022/12/14 06:18:57;;;;;;;20.63;11.27;;;;;;;-9.33;100.00;100419.41;5094174;28;20411;-74
2022/12/14 06:21:28;;;;;;;22.60;10.48;;;;;;;-9.36;100.00;100411.69;5094278;28;20059;-74
2022/12/14 06:23:54;;;;;;;23.13;10.30;;;;;;;-9.37;100.00;100414.28;5094439;28;20028;-74
2022/12/14 06:26:20;;;;;;;19.70;10.02;;;;;;;-9.42;100.00;100409.22;5093995;28;20526;-74
2022/12/14 06:28:45;;;;;;;19.48;9.63;;;;;;;-9.46;100.00;100408.44;5093937;28;20079;-77
2022/12/14 06:31:26;;;;;;;24.45;9.95;;;;;;;-9.50;100.00;100408.50;5093721;28;20028;-77
2022/12/14 06:33:53;;;;;;;21.60;10.40;;;;;;;-9.52;100.00;100411.09;5093834;28;20032;-81
2022/12/14 06:36:22;;;;;;;18.02;9.15;;;;;;;-9.54;100.00;100406.84;5094083;28;20032;-75
2022/12/14 06:38:51;;;;;;;23.73;10.90;;;;;;;-9.57;100.00;100416.31;5093951;28;20451;-75
2022/12/14 06:41:17;;;;;;;20.23;9.13;;;;;;;-9.61;100.00;100418.97;5093608;28;20437;-76
2022/12/14 06:43:42;;;;;;;21.02;9.77;;;;;;;-9.61;100.00;100416.38;5075363;28;20150;-78
2022/12/14 06:46:09;;;;;;;20.20;9.68;;;;;;;-9.64;100.00;100412.13;5093608;28;20028;-78
2022/12/14 06:48:34;;;;;;;18.95;9.30;;;;;;;-9.63;100.00;100407.81;5094240;28;20115;-78
2022/12/14 06:51:03;;;;;;;15.10;8.98;;;;;;;-9.64;100.00;100414.69;5093620;28;20056;-78
2022/12/14 06:53:29;;;;;;;18.42;10.38;;;;;;;-9.68;100.00;100407.88;5076683;28;20028;-74
2022/12/14 06:56:08;;;;;;;20.38;9.70;;;;;;;-9.69;100.00;100415.63;5092841;28;20035;-77
2022/12/14 06:58:34;;;;;;;21.55;9.77;;;;;;;-9.72;100.00;100408.78;5074255;28;20044;-76
2022/12/14 07:01:17;;;;;;;14.82;8.88;;;;;;;-9.75;100.00;100411.41;5073526;28;20032;-76
2022/12/14 07:03:46;;;;;;;17.25;8.93;;;;;;;-9.80;100.00;100405.50;5073833;28;20123;-76
2022/12/14 07:06:12;;;;;;;18.08;8.90;;;;;;;-9.81;100.00;100424.38;5073682;28;20032;-77
2022/12/14 07:08:38;;;;;;;15.82;8.25;;;;;;;-9.85;100.00;100420.13;5076035;28;20020;-76
2022/12/14 07:11:09;;;;;;;22.25;9.48;;;;;;;-9.86;100.00;100419.28;5073512;28;20039;-76
2022/12/14 07:13:35;;;;;;;;;;;;;;;-9.87;100.00;100417.56;5073632;28;20025;-78
2022/12/14 07:16:02;;;;;;;17.58;8.95;;;;;;;-9.88;100.00;100415.91;5072651;28;19919;-76
2022/12/14 07:18:27;;;;;;;16.45;8.32;;;;;;;-9.90;100.00;100412.47;5072892;28;20032;-77
2022/12/14 07:21:08;;;;;;;15.35;7.70;;;;;;;-9.91;100.00;100415.94;5072811;28;20436;-77
2022/12/14 07:23:36;;;;;;;17.30;8.87;;;;;;;-9.93;100.00;100410.81;5072930;28;20040;-78
2022/12/14 07:26:07;;;;;;;18.83;9.55;;;;;;;-9.92;100.00;100407.34;5072504;28;20313;-76
2022/12/14 07:28:34;;;;;;;18.57;9.77;;;;;;;-9.90;100.00;100411.63;5073141;28;20029;-77
2022/12/14 07:31:00;;;;;;;19.50;9.80;;;;;;;-9.90;100.00;100417.63;5072656;28;20259;-79
2022/12/14 07:33:26;;;;;;;15.88;8.63;;;;;;;-9.90;100.00;100421.94;5073086;28;20081;-77
2022/12/14 07:36:00;;;;;;;24.08;8.75;;;;;;;-9.92;100.00;100425.38;5078022;28;20086;-77
2022/12/14 07:38:25;;;;;;;19.25;9.07;;;;;;;-9.87;100.00;100432.19;5072177;28;20032;-72
2022/12/14 07:40:51;;;;;;;17.05;9.15;;;;;;;-9.86;100.00;100436.47;5072343;28;20357;-74
2022/12/14 07:43:17;;;;;;;14.70;8.10;;;;;;;-9.84;100.00;100437.28;5072148;28;20445;-75
2022/12/14 07:45:43;;;;;;;18.73;9.10;;;;;;;-9.84;100.00;100438.13;5072650;28;20469;-75
2022/12/14 07:48:08;;;;;;;18.05;9.85;;;;;;;-9.77;100.00;100438.91;5072462;28;20063;-78
2022/12/14 07:50:34;;;;;;;14.88;8.77;;;;;;;-9.77;100.00;100442.34;5072740;28;20024;-73
2022/12/14 07:52:59;;;;;;;18.40;9.50;;;;;;;-9.77;100.00;100444.06;5072862;28;20025;-75
2022/12/14 07:55:25;;;;;;;20.80;9.10;;;;;;;-9.75;100.00;100444.88;5071745;28;20456;-72
2022/12/14 07:57:50;;;;;;;16.08;8.65;;;;;;;-9.72;100.00;100449.16;5088731;28;20040;-76
2022/12/14 08:00:16;;;;;;;18.52;8.60;;;;;;;-9.72;100.00;100451.72;5092414;28;20028;-73
2022/12/14 08:02:41;;;;;;;19.83;7.93;;;;;;;-9.72;100.00;100457.72;5092897;28;20028;-75
2022/12/14 08:05:07;;;;;;;20.58;9.15;;;;;;;-9.70;100.00;100461.16;5092315;28;20038;-75
2022/12/14 08:07:32;;;;;;;20.30;9.75;;;;;;;-9.68;100.00;100461.97;5092683;28;20110;-77
2022/12/14 08:09:57;;;;;;;14.98;8.25;;;;;;;-9.69;100.00;100456.84;5092330;28;20479;-74
2022/12/14 08:12:23;;;;;;;18.27;9.30;;;;;;;-9.67;100.00;100453.38;5092255;28;20460;-77
2022/12/14 08:14:48;;;;;;;14.65;8.23;;;;;;;-9.67;100.00;100452.50;5091902;28;20460;-74
2022/12/14 08:17:14;;;;;;;15.10;8.82;;;;;;;-9.68;100.00;100451.66;5092100;28;20104;-75
2022/12/14 08:19:39;;;;;;;22.42;9.85;;;;;;;-9.69;100.00;100439.66;5092299;28;20441;-74
2022/12/14 08:22:05;;;;;;;20.83;9.63;;;;;;;-9.69;100.00;100447.38;5091985;28;20028;-73
2022/12/14 08:24:31;;;;;;;15.15;8.82;;;;;;;-9.68;100.00;100449.09;5092182;28;20035;-78
2022/12/14 08:26:57;;;;;;;22.33;10.30;;;;;;;-9.68;100.00;100451.66;5074253;28;20336;-75
2022/12/14 08:29:22;;;;;;;22.70;11.15;;;;;;;-9.63;100.00;100455.03;5092108;28;20035;-76
2022/12/14 08:31:47;;;;;;;23.38;10.73;;;;;;;-9.57;100.00;100459.25;5092306;28;20035;-78
2022/12/14 08:34:15;;;;;;;20.60;10.82;;;;;;;-9.49;100.00;100451.41;5092068;28;20035;-73
2022/12/14 08:36:40;;;;;;;20.67;11.13;;;;;;;-9.39;100.00;100450.41;5091778;28;20077;-76
2022/12/14 08:39:08;;;;;;;21.50;10.70;;;;;;;-9.31;100.00;100455.47;5095761;28;20023;-74
2022/12/14 08:41:34;;;;;;;20.17;9.50;;;;;;;-9.17;100.00;100456.09;5095409;28;20035;-74
2022/12/14 08:44:01;;;;;;;19.05;10.05;;;;;;;-9.02;100.00;100461.88;5095760;28;20028;-74
2022/12/14 08:46:29;;;;;;;19.25;9.20;;;;;;;-8.91;100.00;100465.13;5095689;28;20069;-74
2022/12/14 08:48:54;;;;;;;22.15;9.95;;;;;;;-8.84;100.00;100460.72;5095812;28;20030;-75
2022/12/14 08:51:21;;;;;;;24.75;10.98;;;;;;;-8.76;100.00;100459.72;5095469;28;20058;-74
2022/12/14 08:53:47;;;;;;;21.42;10.50;;;;;;;-8.70;100.00;100458.78;5095804;28;20364;-74
2022/12/14 08:56:18;;;;;;;17.38;9.20;;;;;;;-8.61;100.00;100466.34;5095341;28;20118;-75
2022/12/14 08:58:44;;;;;;;19.65;10.02;;;;;;;-8.47;100.00;100462.69;5093556;28;20056;-74
2022/12/14 09:01:12;;;;;;;19.50;9.90;;;;;;;-8.37;100.00;100467.59;5077313;28;20108;-75
2022/12/14 09:03:45;;;;;;;20.20;10.18;;;;;;;-8.27;100.00;100470.88;5095453;28;20460;-75
2022/12/14 09:06:17;;;;;;;22.30;9.60;;;;;;;-8.17;100.00;100472.38;5095393;28;20467;-73
2022/12/14 09:08:43;;;;;;;19.17;10.52;;;;;;;-8.06;100.00;100482.53;5095610;28;20101;-77
2022/12/14 09:11:13;;;;;;;19.15;10.05;;;;;;;-8.00;100.00;100474.66;5095325;28;20016;-75
2022/12/14 09:13:39;;;;;;;21.95;11.55;;;;;;;-7.89;100.00;100482.19;5077457;28;20035;-74
2022/12/14 09:16:32;;;;;;;20.50;10.20;;;;;;;-7.77;100.00;100475.91;5095245;28;20028;-73
2022/12/14 09:18:58;;;;;;;22.95;10.68;;;;;;;-7.66;100.00;100475.69;5091003;28;20047;-74
2022/12/14 09:21:23;;;;;;;25.38;11.10;;;;;;;-7.57;100.00;100483.22;5095646;28;20032;-73
2022/12/14 09:23:49;;;;;;;20.15;10.95;;;;;;;-7.47;100.00;100483.91;5095138;28;20107;-72
2022/12/14 09:26:17;;;;;;;25.40;11.38;;;;;;;-7.37;100.00;100475.06;5095257;28;20080;-78
2022/12/14 09:28:46;;;;;;;19.92;10.90;;;;;;;-7.27;100.00;100473.09;5095064;28;20082;-73
2022/12/14 09:31:13;;;;;;;21.60;11.10;;;;;;;-7.16;100.00;100468.53;5094999;28;20024;-72
2022/12/14 09:33:38;;;;;;;21.05;11.38;;;;;;;-7.07;100.00;100477.00;5095060;28;20032;-75
2022/12/14 09:36:06;;;;;;;23.98;11.65;;;;;;;-6.97;100.00;100475.84;5076622;28;20034;-73
2022/12/14 09:38:34;;;;;;;22.38;11.10;;;;;;;-6.88;100.00;100486.00;5094857;28;20024;-75
2022/12/14 09:41:02;;;;;;;28.08;14.70;;;;;;;-6.73;100.00;100484.78;5095476;28;20118;-73
2022/12/14 09:43:46;;;;;;;26.27;16.17;;;;;;;-6.59;100.00;100484.44;5076406;28;20443;-72
2022/12/14 09:46:26;;;;;;;26.08;15.25;;;;;;;-6.46;100.00;100485.81;5094955;28;20027;-72
2022/12/14 09:48:52;;;;;;;27.58;14.77;;;;;;;-6.32;100.00;100482.84;5094336;28;20020;-72
2022/12/14 09:51:21;;;;;;;21.45;12.77;;;;;;;-6.21;100.00;100486.03;5095422;28;20093;-73
2022/12/14 09:53:51;;;;;;;24.80;12.93;;;;;;;-6.10;100.00;100484.88;5096334;28;20106;-75
2022/12/14 09:56:19;;;;;;;22.17;11.43;;;;;;;-5.96;100.00;100494.81;5095051;28;20016;-75
2022/12/14 09:58:55;;;;;;;19.63;10.60;;;;;;;-5.85;100.00;100487.63;5094920;28;20112;-76
2022/12/14 10:01:47;;;;;;;19.45;10.05;;;;;;;-5.71;100.00;100484.63;5094506;28;20353;-72
2022/12/14 10:04:34;;;;;;;23.35;11.38;;;;;;;-5.58;100.00;100491.16;5098983;28;20024;-76
2022/12/14 10:07:06;;;;;;;19.65;9.77;;;;;;;-5.49;100.00;100488.28;5094716;28;20073;-77
2022/12/14 10:10:09;;;;;;;16.92;10.07;;;;;;;-5.39;100.00;100488.00;5094464;28;20023;-75
2022/12/14 10:12:41;;;;;;;20.95;10.15;;;;;;;-5.27;100.00;100482.47;5094691;28;20049;-77
2022/12/14 10:15:38;;;;;;;21.60;10.73;;;;;;;-5.16;100.00;100487.31;5095202;28;20074;-74
2022/12/14 10:18:11;;;;;;;24.80;11.52;;;;;;;-5.08;100.00;100480.13;5094603;28;20525;-72
2022/12/14 10:21:17;;;;;;;17.08;10.43;;;;;;;-4.99;100.00;100490.19;5094115;28;20031;-74
2022/12/14 10:23:55;;;;;;;18.90;9.82;;;;;;;-4.90;100.00;100480.44;5079893;28;20094;-74
2022/12/14 10:26:25;;;;;;;15.73;9.60;;;;;;;-4.84;100.00;100477.63;5095424;28;20024;-74
2022/12/14 10:29:26;;;;;;;21.15;11.13;;;;;;;-4.75;100.00;100464.34;5094021;28;20047;-73
2022/12/14 10:32:18;;;;;;;18.35;10.35;;;;;;;-4.69;100.00;100464.16;5076531;28;20032;-74
2022/12/14 10:34:43;;;;;;;18.83;10.32;;;;;;;-4.60;100.00;100463.00;5094137;28;20083;-73
2022/12/14 10:37:21;;;;;;;18.92;10.05;;;;;;;-4.53;100.00;100463.66;5093722;28;20475;-73
2022/12/14 10:40:01;;;;;;;18.33;10.70;;;;;;;-4.47;100.00;100464.28;5093821;28;20028;-73
2022/12/14 10:42:47;;;;;;;21.27;9.87;;;;;;;-4.38;100.00;100460.50;5075935;28;20432;-75
2022/12/14 10:45:30;;;;;;;18.98;10.45;;;;;;;-4.30;100.00;100468.03;5042025;28;20117;-75
2022/12/14 10:48:30;;;;;;;17.98;10.25;;;;;;;-4.17;100.00;100465.88;5094158;28;20020;-77
2022/12/14 10:51:12;;;;;;;17.90;9.52;;;;;;;-4.07;100.00;100465.47;5094090;28;20020;-75
2022/12/14 10:53:47;;;;;;;17.23;9.32;;;;;;;-3.88;100.00;100463.97;5094202;28;20019;-74
2022/12/14 10:56:24;;;;;;;19.88;9.85;;;;;;;-3.74;100.00;100464.31;5094035;28;20048;-75
2022/12/14 10:59:25;;;;;;;15.70;9.20;;;;;;;-3.56;100.00;100466.22;5093303;28;20090;-73
2022/12/14 11:02:07;;;;;;;15.90;9.88;;;;;;;-3.36;100.00;100462.00;5085569;28;20464;-75
2022/12/14 11:04:34;;;;;;;16.10;8.73;;;;;;;-3.20;100.00;100462.25;5093663;28;20028;-75
2022/12/14 11:07:03;;;;;;;18.58;9.15;;;;;;;-3.06;100.00;100457.34;5093342;28;20035;-75
2022/12/14 11:09:29;;;;;;;17.70;9.70;;;;;;;-2.94;100.00;100457.75;5093696;28;20339;-75
2022/12/14 11:12:01;;;;;;;18.88;9.90;;;;;;;-2.91;100.00;100461.09;5093156;28;20058;-74
2022/12/14 11:14:27;;;;;;;15.63;9.38;;;;;;;-2.86;100.00;100468.72;5093391;28;20031;-74
2022/12/14 11:16:53;;;;;;;18.83;9.90;;;;;;;-2.87;100.00;100465.25;5092855;28;20032;-72
2022/12/14 11:19:21;;;;;;;17.55;9.13;;;;;;;-2.83;100.00;100460.78;5093043;28;20383;-74
2022/12/14 11:21:48;;;;;;;17.17;9.57;;;;;;;-2.76;100.00;100466.56;5092816;28;20028;-75
2022/12/14 11:24:24;;;;;;;16.55;9.50;;;;;;;-2.41;100.00;100461.66;5093117;28;20028;-74
2022/12/14 11:26:52;;;;;;;18.70;8.85;;;;;;;-1.90;100.00;100457.66;5092611;28;20466;-76
2022/12/14 11:29:25;;;;;;;15.00;8.65;;;;;;;-1.47;100.00;100460.94;5092910;28;20401;-74
2022/12/14 11:31:54;;;;;;;12.60;7.68;;;;;;;-1.01;100.00;100457.09;5092830;28;20368;-76
2022/12/14 11:34:24;;;;;;;15.60;9.18;;;;;;;-0.86;100.00;100458.94;5092906;28;20035;-76
2022/12/14 11:36:49;;;;;;;17.33;9.60;;;;;;;-0.88;100.00;100455.56;5093310;28;20024;-77
2022/12/14 11:39:20;;;;;;;13.93;8.40;;;;;;;-0.74;100.00;100452.25;5093293;28;20028;-75